sensor_id;sensor_type;location;lat;lon;timestamp;P1;durP1;ratioP1;P2;durP2;ratioP2
39256;SDS011;24958;48.066;11.038;2022-07-23T00:02:08;12.90;;;11.90;;
39256;SDS011;24958;48.066;11.038;2022-07-23T00:04:34;13.93;;;12.65;;
39256;SDS011;24958;48.066;11.038;2022-07-23T00:07:00;12.85;;;11.68;;
39256;SDS011;24958;48.066;11.038;2022-07-23T00:09:26;13.45;;;12.25;;
39256;SDS011;24958;48.066;11.038;2022-07-23T00:11:53;13.00;;;12.00;;
39256;SDS011;24958;48.066;11.038;2022-07-23T00:14:19;14.02;;;12.93;;
39256;SDS011;24958;48.066;11.038;2022-07-23T00:16:45;13.40;;;12.30;;
39256;SDS011;24958;48.066;11.038;2022-07-23T00:19:11;13.57;;;12.50;;
39256;SDS011;24958;48.066;11.038;2022-07-23T00:21:37;12.73;;;11.70;;
39256;SDS011;24958;48.066;11.038;2022-07-23T00:24:03;12.77;;;11.70;;
39256;SDS011;24958;48.066;11.038;2022-07-23T00:26:29;13.57;;;12.35;;
39256;SDS011;24958;48.066;11.038;2022-07-23T00:28:55;12.93;;;11.73;;
39256;SDS011;24958;48.066;11.038;2022-07-23T00:31:21;13.43;;;12.23;;
39256;SDS011;24958;48.066;11.038;2022-07-23T00:33:47;13.75;;;12.52;;
39256;SDS011;24958;48.066;11.038;2022-07-23T00:36:13;12.27;;;11.18;;
39256;SDS011;24958;48.066;11.038;2022-07-23T00:38:39;13.40;;;12.00;;
39256;SDS011;24958;48.066;11.038;2022-07-23T00:41:05;11.98;;;10.75;;
39256;SDS011;24958;48.066;11.038;2022-07-23T00:43:31;11.27;;;10.25;;
39256;SDS011;24958;48.066;11.038;2022-07-23T00:45:57;11.70;;;10.48;;
39256;SDS011;24958;48.066;11.038;2022-07-23T00:48:23;10.85;;;9.70;;
39256;SDS011;24958;48.066;11.038;2022-07-23T00:50:49;10.73;;;9.55;;
39256;SDS011;24958;48.066;11.038;2022-07-23T00:53:15;10.32;;;8.65;;
39256;SDS011;24958;48.066;11.038;2022-07-23T00:55:41;16.30;;;9.60;;
39256;SDS011;24958;48.066;11.038;2022-07-23T00:58:07;8.88;;;7.97;;
39256;SDS011;24958;48.066;11.038;2022-07-23T01:00:34;12.20;;;9.38;;
39256;SDS011;24958;48.066;11.038;2022-07-23T01:03:00;12.55;;;9.43;;
39256;SDS011;24958;48.066;11.038;2022-07-23T01:05:26;11.05;;;9.98;;
39256;SDS011;24958;48.066;11.038;2022-07-23T01:07:52;10.65;;;9.02;;
39256;SDS011;24958;48.066;11.038;2022-07-23T01:10:18;10.77;;;9.68;;
39256;SDS011;24958;48.066;11.038;2022-07-23T01:12:56;11.13;;;9.95;;
39256;SDS011;24958;48.066;11.038;2022-07-23T01:15:22;10.70;;;9.55;;
39256;SDS011;24958;48.066;11.038;2022-07-23T01:17:49;11.20;;;9.68;;
39256;SDS011;24958;48.066;11.038;2022-07-23T01:20:15;12.43;;;11.13;;
39256;SDS011;24958;48.066;11.038;2022-07-23T01:22:41;15.85;;;10.52;;
39256;SDS011;24958;48.066;11.038;2022-07-23T01:25:07;11.88;;;10.43;;
39256;SDS011;24958;48.066;11.038;2022-07-23T01:27:34;13.25;;;11.95;;
39256;SDS011;24958;48.066;11.038;2022-07-23T01:30:00;13.13;;;11.38;;
39256;SDS011;24958;48.066;11.038;2022-07-23T01:32:26;12.13;;;10.90;;
39256;SDS011;24958;48.066;11.038;2022-07-23T01:34:52;16.92;;;12.73;;
39256;SDS011;24958;48.066;11.038;2022-07-23T01:37:18;11.80;;;10.60;;
39256;SDS011;24958;48.066;11.038;2022-07-23T01:39:44;13.13;;;11.80;;
39256;SDS011;24958;48.066;11.038;2022-07-23T01:42:10;11.77;;;10.02;;
39256;SDS011;24958;48.066;11.038;2022-07-23T01:44:36;11.52;;;10.40;;
39256;SDS011;24958;48.066;11.038;2022-07-23T01:47:02;13.40;;;11.30;;
39256;SDS011;24958;48.066;11.038;2022-07-23T01:49:28;10.90;;;9.90;;
39256;SDS011;24958;48.066;11.038;2022-07-23T01:51:54;10.82;;;9.85;;
39256;SDS011;24958;48.066;11.038;2022-07-23T01:54:27;11.75;;;9.95;;
39256;SDS011;24958;48.066;11.038;2022-07-23T01:56:53;11.13;;;10.02;;
39256;SDS011;24958;48.066;11.038;2022-07-23T01:59:20;9.52;;;8.73;;
39256;SDS011;24958;48.066;11.038;2022-07-23T02:01:46;8.00;;;7.20;;
39256;SDS011;24958;48.066;11.038;2022-07-23T02:04:13;11.05;;;9.82;;
39256;SDS011;24958;48.066;11.038;2022-07-23T02:06:39;8.90;;;8.10;;
39256;SDS011;24958;48.066;11.038;2022-07-23T02:09:05;11.27;;;10.05;;
39256;SDS011;24958;48.066;11.038;2022-07-23T02:11:31;10.15;;;9.23;;
39256;SDS011;24958;48.066;11.038;2022-07-23T02:13:57;10.18;;;8.88;;
39256;SDS011;24958;48.066;11.038;2022-07-23T02:16:23;8.90;;;8.02;;
39256;SDS011;24958;48.066;11.038;2022-07-23T02:18:49;9.73;;;8.82;;
39256;SDS011;24958;48.066;11.038;2022-07-23T02:21:15;9.02;;;8.13;;
39256;SDS011;24958;48.066;11.038;2022-07-23T02:23:41;8.50;;;7.50;;
39256;SDS011;24958;48.066;11.038;2022-07-23T02:26:07;7.45;;;6.75;;
39256;SDS011;24958;48.066;11.038;2022-07-23T02:28:33;7.45;;;6.70;;
39256;SDS011;24958;48.066;11.038;2022-07-23T02:30:59;6.78;;;6.18;;
39256;SDS011;24958;48.066;11.038;2022-07-23T02:33:25;7.32;;;6.63;;
39256;SDS011;24958;48.066;11.038;2022-07-23T02:35:51;6.30;;;5.80;;
39256;SDS011;24958;48.066;11.038;2022-07-23T02:38:17;8.07;;;6.65;;
39256;SDS011;24958;48.066;11.038;2022-07-23T02:40:43;7.40;;;6.70;;
39256;SDS011;24958;48.066;11.038;2022-07-23T02:43:09;5.95;;;5.40;;
39256;SDS011;24958;48.066;11.038;2022-07-23T02:45:35;7.03;;;6.43;;
39256;SDS011;24958;48.066;11.038;2022-07-23T02:48:01;6.82;;;6.22;;
39256;SDS011;24958;48.066;11.038;2022-07-23T02:50:27;6.80;;;5.85;;
39256;SDS011;24958;48.066;11.038;2022-07-23T02:52:53;6.07;;;5.47;;
39256;SDS011;24958;48.066;11.038;2022-07-23T02:55:19;6.25;;;5.65;;
39256;SDS011;24958;48.066;11.038;2022-07-23T02:57:45;5.70;;;5.18;;
39256;SDS011;24958;48.066;11.038;2022-07-23T03:00:11;6.32;;;5.72;;
39256;SDS011;24958;48.066;11.038;2022-07-23T03:02:37;5.97;;;5.47;;
39256;SDS011;24958;48.066;11.038;2022-07-23T03:05:03;7.20;;;6.55;;
39256;SDS011;24958;48.066;11.038;2022-07-23T03:07:29;6.68;;;6.07;;
39256;SDS011;24958;48.066;11.038;2022-07-23T03:09:55;7.28;;;6.60;;
39256;SDS011;24958;48.066;11.038;2022-07-23T03:12:21;7.22;;;6.63;;
39256;SDS011;24958;48.066;11.038;2022-07-23T03:14:47;8.25;;;7.45;;
39256;SDS011;24958;48.066;11.038;2022-07-23T03:17:13;8.00;;;7.20;;
39256;SDS011;24958;48.066;11.038;2022-07-23T03:19:39;6.90;;;6.35;;
39256;SDS011;24958;48.066;11.038;2022-07-23T03:22:05;8.00;;;7.15;;
39256;SDS011;24958;48.066;11.038;2022-07-23T03:24:31;7.35;;;6.72;;
39256;SDS011;24958;48.066;11.038;2022-07-23T03:27:17;8.10;;;7.32;;
39256;SDS011;24958;48.066;11.038;2022-07-23T03:29:43;7.55;;;6.85;;
39256;SDS011;24958;48.066;11.038;2022-07-23T03:32:09;7.35;;;6.70;;
39256;SDS011;24958;48.066;11.038;2022-07-23T03:34:35;6.72;;;6.20;;
39256;SDS011;24958;48.066;11.038;2022-07-23T03:37:01;7.38;;;6.68;;
39256;SDS011;24958;48.066;11.038;2022-07-23T03:39:27;7.07;;;6.55;;
39256;SDS011;24958;48.066;11.038;2022-07-23T03:41:53;8.02;;;7.32;;
39256;SDS011;24958;48.066;11.038;2022-07-23T03:44:19;6.72;;;6.22;;
39256;SDS011;24958;48.066;11.038;2022-07-23T03:46:45;7.65;;;6.93;;
39256;SDS011;24958;48.066;11.038;2022-07-23T03:49:11;6.90;;;6.40;;
39256;SDS011;24958;48.066;11.038;2022-07-23T03:51:37;7.75;;;6.95;;
39256;SDS011;24958;48.066;11.038;2022-07-23T03:54:03;8.15;;;7.35;;
39256;SDS011;24958;48.066;11.038;2022-07-23T03:56:29;7.03;;;6.35;;
39256;SDS011;24958;48.066;11.038;2022-07-23T03:58:55;7.90;;;7.18;;
39256;SDS011;24958;48.066;11.038;2022-07-23T04:01:21;7.10;;;6.50;;
39256;SDS011;24958;48.066;11.038;2022-07-23T04:03:47;7.45;;;6.78;;
39256;SDS011;24958;48.066;11.038;2022-07-23T04:06:13;6.95;;;6.45;;
39256;SDS011;24958;48.066;11.038;2022-07-23T04:08:39;7.80;;;7.10;;
39256;SDS011;24958;48.066;11.038;2022-07-23T04:11:05;8.18;;;7.35;;
39256;SDS011;24958;48.066;11.038;2022-07-23T04:13:31;7.32;;;6.72;;
39256;SDS011;24958;48.066;11.038;2022-07-23T04:15:58;8.35;;;7.47;;
39256;SDS011;24958;48.066;11.038;2022-07-23T04:18:24;7.00;;;6.45;;
39256;SDS011;24958;48.066;11.038;2022-07-23T04:20:52;8.23;;;7.47;;
39256;SDS011;24958;48.066;11.038;2022-07-23T04:23:19;8.07;;;7.38;;
39256;SDS011;24958;48.066;11.038;2022-07-23T04:25:45;7.00;;;6.50;;
39256;SDS011;24958;48.066;11.038;2022-07-23T04:28:11;8.70;;;7.90;;
39256;SDS011;24958;48.066;11.038;2022-07-23T04:30:37;7.35;;;6.65;;
39256;SDS011;24958;48.066;11.038;2022-07-23T04:33:03;7.80;;;7.13;;
39256;SDS011;24958;48.066;11.038;2022-07-23T04:35:35;8.05;;;7.35;;
39256;SDS011;24958;48.066;11.038;2022-07-23T04:38:02;7.82;;;7.18;;
39256;SDS011;24958;48.066;11.038;2022-07-23T04:40:28;7.38;;;6.70;;
39256;SDS011;24958;48.066;11.038;2022-07-23T04:42:54;8.65;;;7.88;;
39256;SDS011;24958;48.066;11.038;2022-07-23T04:45:20;8.40;;;7.70;;
39256;SDS011;24958;48.066;11.038;2022-07-23T04:47:48;9.18;;;8.38;;
39256;SDS011;24958;48.066;11.038;2022-07-23T04:50:14;7.50;;;6.80;;
39256;SDS011;24958;48.066;11.038;2022-07-23T04:52:44;8.13;;;7.43;;
39256;SDS011;24958;48.066;11.038;2022-07-23T04:55:09;9.20;;;8.25;;
39256;SDS011;24958;48.066;11.038;2022-07-23T04:57:36;7.57;;;6.93;;
39256;SDS011;24958;48.066;11.038;2022-07-23T05:00:03;8.73;;;7.93;;
39256;SDS011;24958;48.066;11.038;2022-07-23T05:02:29;8.00;;;7.35;;
39256;SDS011;24958;48.066;11.038;2022-07-23T05:04:55;9.15;;;8.32;;
39256;SDS011;24958;48.066;11.038;2022-07-23T05:07:21;7.38;;;6.78;;
39256;SDS011;24958;48.066;11.038;2022-07-23T05:09:47;8.48;;;7.68;;
39256;SDS011;24958;48.066;11.038;2022-07-23T05:12:13;8.63;;;7.93;;
39256;SDS011;24958;48.066;11.038;2022-07-23T05:14:39;8.52;;;7.72;;
39256;SDS011;24958;48.066;11.038;2022-07-23T05:17:05;7.90;;;7.20;;
39256;SDS011;24958;48.066;11.038;2022-07-23T05:19:33;7.68;;;6.97;;
39256;SDS011;24958;48.066;11.038;2022-07-23T05:22:00;8.00;;;7.32;;
39256;SDS011;24958;48.066;11.038;2022-07-23T05:24:26;8.75;;;7.97;;
39256;SDS011;24958;48.066;11.038;2022-07-23T05:26:52;8.00;;;7.40;;
39256;SDS011;24958;48.066;11.038;2022-07-23T05:29:18;8.88;;;8.07;;
39256;SDS011;24958;48.066;11.038;2022-07-23T05:31:44;7.88;;;7.00;;
39256;SDS011;24958;48.066;11.038;2022-07-23T05:34:09;8.50;;;7.80;;
39256;SDS011;24958;48.066;11.038;2022-07-23T05:36:35;7.72;;;7.03;;
39256;SDS011;24958;48.066;11.038;2022-07-23T05:39:02;8.45;;;7.75;;
39256;SDS011;24958;48.066;11.038;2022-07-23T05:41:28;8.27;;;7.63;;
39256;SDS011;24958;48.066;11.038;2022-07-23T05:43:54;8.40;;;7.70;;
39256;SDS011;24958;48.066;11.038;2022-07-23T05:46:20;8.63;;;7.82;;
39256;SDS011;24958;48.066;11.038;2022-07-23T05:48:46;7.97;;;7.28;;
39256;SDS011;24958;48.066;11.038;2022-07-23T05:51:18;7.25;;;6.65;;
39256;SDS011;24958;48.066;11.038;2022-07-23T05:53:44;7.97;;;7.28;;
39256;SDS011;24958;48.066;11.038;2022-07-23T05:56:10;7.82;;;7.13;;
39256;SDS011;24958;48.066;11.038;2022-07-23T05:58:36;8.27;;;7.57;;
39256;SDS011;24958;48.066;11.038;2022-07-23T06:01:02;7.60;;;7.00;;
39256;SDS011;24958;48.066;11.038;2022-07-23T06:03:28;7.47;;;6.80;;
39256;SDS011;24958;48.066;11.038;2022-07-23T06:05:54;8.27;;;7.50;;
39256;SDS011;24958;48.066;11.038;2022-07-23T06:08:20;13.90;;;12.50;;
39256;SDS011;24958;48.066;11.038;2022-07-23T06:10:46;8.38;;;7.68;;
39256;SDS011;24958;48.066;11.038;2022-07-23T06:13:12;10.00;;;9.10;;
39256;SDS011;24958;48.066;11.038;2022-07-23T06:15:38;9.73;;;8.80;;
39256;SDS011;24958;48.066;11.038;2022-07-23T06:18:04;11.80;;;10.60;;
39256;SDS011;24958;48.066;11.038;2022-07-23T06:20:30;12.68;;;11.38;;
39256;SDS011;24958;48.066;11.038;2022-07-23T06:22:56;12.05;;;10.43;;
39256;SDS011;24958;48.066;11.038;2022-07-23T06:25:22;10.35;;;9.30;;
39256;SDS011;24958;48.066;11.038;2022-07-23T06:27:48;10.73;;;9.73;;
39256;SDS011;24958;48.066;11.038;2022-07-23T06:30:14;10.00;;;9.07;;
39256;SDS011;24958;48.066;11.038;2022-07-23T06:32:44;9.90;;;9.00;;
39256;SDS011;24958;48.066;11.038;2022-07-23T06:35:10;11.38;;;10.27;;
39256;SDS011;24958;48.066;11.038;2022-07-23T06:37:36;10.80;;;9.90;;
39256;SDS011;24958;48.066;11.038;2022-07-23T06:40:02;10.60;;;9.57;;
39256;SDS011;24958;48.066;11.038;2022-07-23T06:42:28;10.27;;;9.38;;
39256;SDS011;24958;48.066;11.038;2022-07-23T06:44:54;11.05;;;9.95;;
39256;SDS011;24958;48.066;11.038;2022-07-23T06:47:21;10.63;;;9.57;;
39256;SDS011;24958;48.066;11.038;2022-07-23T06:49:46;10.48;;;9.57;;
39256;SDS011;24958;48.066;11.038;2022-07-23T06:52:12;10.40;;;9.50;;
39256;SDS011;24958;48.066;11.038;2022-07-23T06:54:38;10.48;;;9.43;;
39256;SDS011;24958;48.066;11.038;2022-07-23T06:57:04;11.10;;;10.00;;
39256;SDS011;24958;48.066;11.038;2022-07-23T06:59:30;10.63;;;9.70;;
39256;SDS011;24958;48.066;11.038;2022-07-23T07:01:58;10.05;;;9.23;;
39256;SDS011;24958;48.066;11.038;2022-07-23T07:04:23;10.88;;;9.85;;
39256;SDS011;24958;48.066;11.038;2022-07-23T07:06:49;10.77;;;9.73;;
39256;SDS011;24958;48.066;11.038;2022-07-23T07:09:15;10.73;;;9.88;;
39256;SDS011;24958;48.066;11.038;2022-07-23T07:11:42;11.13;;;10.13;;
39256;SDS011;24958;48.066;11.038;2022-07-23T07:14:08;10.38;;;9.48;;
39256;SDS011;24958;48.066;11.038;2022-07-23T07:16:34;10.35;;;9.38;;
39256;SDS011;24958;48.066;11.038;2022-07-23T07:19:00;10.43;;;9.52;;
39256;SDS011;24958;48.066;11.038;2022-07-23T07:21:26;10.27;;;9.38;;
39256;SDS011;24958;48.066;11.038;2022-07-23T07:23:52;9.93;;;9.07;;
39256;SDS011;24958;48.066;11.038;2022-07-23T07:26:18;9.32;;;8.52;;
39256;SDS011;24958;48.066;11.038;2022-07-23T07:28:44;10.05;;;9.05;;
39256;SDS011;24958;48.066;11.038;2022-07-23T07:31:10;10.73;;;9.73;;
39256;SDS011;24958;48.066;11.038;2022-07-23T07:33:36;10.48;;;9.57;;
39256;SDS011;24958;48.066;11.038;2022-07-23T07:36:02;9.82;;;9.02;;
39256;SDS011;24958;48.066;11.038;2022-07-23T07:38:29;10.43;;;9.52;;
39256;SDS011;24958;48.066;11.038;2022-07-23T07:40:54;10.88;;;9.95;;
39256;SDS011;24958;48.066;11.038;2022-07-23T07:43:21;10.25;;;8.93;;
39256;SDS011;24958;48.066;11.038;2022-07-23T07:45:47;9.35;;;8.57;;
39256;SDS011;24958;48.066;11.038;2022-07-23T07:48:13;9.98;;;9.07;;
39256;SDS011;24958;48.066;11.038;2022-07-23T07:50:39;10.70;;;9.80;;
39256;SDS011;24958;48.066;11.038;2022-07-23T07:53:05;9.50;;;8.60;;
39256;SDS011;24958;48.066;11.038;2022-07-23T07:55:31;10.27;;;9.32;;
39256;SDS011;24958;48.066;11.038;2022-07-23T07:57:57;9.32;;;8.63;;
39256;SDS011;24958;48.066;11.038;2022-07-23T08:00:23;9.68;;;8.88;;
39256;SDS011;24958;48.066;11.038;2022-07-23T08:02:50;10.27;;;9.35;;
39256;SDS011;24958;48.066;11.038;2022-07-23T08:05:20;9.60;;;8.70;;
39256;SDS011;24958;48.066;11.038;2022-07-23T08:07:46;9.93;;;9.02;;
39256;SDS011;24958;48.066;11.038;2022-07-23T08:10:12;10.35;;;9.45;;
39256;SDS011;24958;48.066;11.038;2022-07-23T08:12:42;11.18;;;10.18;;
39256;SDS011;24958;48.066;11.038;2022-07-23T08:15:10;10.80;;;9.90;;
39256;SDS011;24958;48.066;11.038;2022-07-23T08:17:36;10.88;;;9.88;;
39256;SDS011;24958;48.066;11.038;2022-07-23T08:20:03;11.30;;;10.15;;
39256;SDS011;24958;48.066;11.038;2022-07-23T08:22:42;10.00;;;9.20;;
39256;SDS011;24958;48.066;11.038;2022-07-23T08:25:09;10.15;;;9.35;;
39256;SDS011;24958;48.066;11.038;2022-07-23T08:27:35;9.57;;;8.80;;
39256;SDS011;24958;48.066;11.038;2022-07-23T08:30:01;10.15;;;9.27;;
39256;SDS011;24958;48.066;11.038;2022-07-23T08:32:27;8.48;;;7.88;;
39256;SDS011;24958;48.066;11.038;2022-07-23T08:34:53;9.52;;;8.82;;
39256;SDS011;24958;48.066;11.038;2022-07-23T08:37:19;9.18;;;8.38;;
39256;SDS011;24958;48.066;11.038;2022-07-23T08:39:45;8.82;;;8.02;;
39256;SDS011;24958;48.066;11.038;2022-07-23T08:42:12;8.65;;;8.00;;
39256;SDS011;24958;48.066;11.038;2022-07-23T08:44:40;8.20;;;7.50;;
39256;SDS011;24958;48.066;11.038;2022-07-23T08:47:08;8.13;;;7.45;;
39256;SDS011;24958;48.066;11.038;2022-07-23T08:49:34;8.65;;;7.80;;
39256;SDS011;24958;48.066;11.038;2022-07-23T08:52:00;8.40;;;7.70;;
39256;SDS011;24958;48.066;11.038;2022-07-23T08:54:27;8.82;;;8.13;;
39256;SDS011;24958;48.066;11.038;2022-07-23T08:56:53;8.52;;;7.82;;
39256;SDS011;24958;48.066;11.038;2022-07-23T08:59:19;8.50;;;7.80;;
39256;SDS011;24958;48.066;11.038;2022-07-23T09:01:45;9.00;;;8.20;;
39256;SDS011;24958;48.066;11.038;2022-07-23T09:04:10;8.20;;;7.40;;
39256;SDS011;24958;48.066;11.038;2022-07-23T09:06:38;8.05;;;7.35;;
39256;SDS011;24958;48.066;11.038;2022-07-23T09:09:20;7.68;;;6.97;;
39256;SDS011;24958;48.066;11.038;2022-07-23T09:11:47;7.70;;;7.10;;
39256;SDS011;24958;48.066;11.038;2022-07-23T09:14:13;7.15;;;6.55;;
39256;SDS011;24958;48.066;11.038;2022-07-23T09:16:39;8.15;;;7.32;;
39256;SDS011;24958;48.066;11.038;2022-07-23T09:19:06;7.10;;;6.50;;
39256;SDS011;24958;48.066;11.038;2022-07-23T09:21:33;6.57;;;6.03;;
39256;SDS011;24958;48.066;11.038;2022-07-23T09:24:00;6.63;;;6.13;;
39256;SDS011;24958;48.066;11.038;2022-07-23T09:26:31;6.80;;;6.30;;
39256;SDS011;24958;48.066;11.038;2022-07-23T09:28:58;6.60;;;5.75;;
39256;SDS011;24958;48.066;11.038;2022-07-23T09:31:25;5.93;;;5.32;;
39256;SDS011;24958;48.066;11.038;2022-07-23T09:34:10;6.38;;;5.80;;
39256;SDS011;24958;48.066;11.038;2022-07-23T09:36:36;6.18;;;5.57;;
39256;SDS011;24958;48.066;11.038;2022-07-23T09:39:02;6.45;;;5.85;;
39256;SDS011;24958;48.066;11.038;2022-07-23T09:41:36;5.97;;;5.57;;
39256;SDS011;24958;48.066;11.038;2022-07-23T09:44:09;8.15;;;6.32;;
39256;SDS011;24958;48.066;11.038;2022-07-23T09:46:35;6.10;;;5.60;;
39256;SDS011;24958;48.066;11.038;2022-07-23T09:49:12;6.15;;;5.65;;
39256;SDS011;24958;48.066;11.038;2022-07-23T09:51:45;6.50;;;5.90;;
39256;SDS011;24958;48.066;11.038;2022-07-23T09:54:28;6.45;;;5.95;;
39256;SDS011;24958;48.066;11.038;2022-07-23T09:56:56;7.35;;;6.65;;
39256;SDS011;24958;48.066;11.038;2022-07-23T09:59:23;6.30;;;5.80;;
39256;SDS011;24958;48.066;11.038;2022-07-23T10:01:51;6.15;;;5.65;;
39256;SDS011;24958;48.066;11.038;2022-07-23T10:04:18;6.93;;;6.22;;
39256;SDS011;24958;48.066;11.038;2022-07-23T10:06:44;6.25;;;5.65;;
39256;SDS011;24958;48.066;11.038;2022-07-23T10:09:11;6.22;;;5.75;;
39256;SDS011;24958;48.066;11.038;2022-07-23T10:11:38;6.72;;;6.22;;
39256;SDS011;24958;48.066;11.038;2022-07-23T10:14:04;5.90;;;5.50;;
39256;SDS011;24958;48.066;11.038;2022-07-23T10:16:31;7.00;;;6.30;;
39256;SDS011;24958;48.066;11.038;2022-07-23T10:18:57;7.13;;;6.53;;
39256;SDS011;24958;48.066;11.038;2022-07-23T10:24:16;9.15;;;8.30;;
39256;SDS011;24958;48.066;11.038;2022-07-23T10:26:51;7.88;;;7.28;;
39256;SDS011;24958;48.066;11.038;2022-07-23T10:29:33;9.93;;;9.02;;
39256;SDS011;24958;48.066;11.038;2022-07-23T10:32:02;9.50;;;8.65;;
39256;SDS011;24958;48.066;11.038;2022-07-23T10:34:34;7.50;;;6.90;;
39256;SDS011;24958;48.066;11.038;2022-07-23T10:37:07;8.98;;;8.25;;
39256;SDS011;24958;48.066;11.038;2022-07-23T10:39:40;7.70;;;7.10;;
39256;SDS011;24958;48.066;11.038;2022-07-23T10:42:12;7.88;;;7.10;;
39256;SDS011;24958;48.066;11.038;2022-07-23T10:44:43;8.13;;;7.43;;
39256;SDS011;24958;48.066;11.038;2022-07-23T10:47:09;7.72;;;7.13;;
39256;SDS011;24958;48.066;11.038;2022-07-23T10:49:51;7.57;;;6.97;;
39256;SDS011;24958;48.066;11.038;2022-07-23T10:52:18;8.20;;;7.57;;
39256;SDS011;24958;48.066;11.038;2022-07-23T10:54:46;7.40;;;6.80;;
39256;SDS011;24958;48.066;11.038;2022-07-23T10:57:12;8.23;;;7.45;;
39256;SDS011;24958;48.066;11.038;2022-07-23T11:00:23;8.07;;;7.38;;
39256;SDS011;24958;48.066;11.038;2022-07-23T11:02:24;7.88;;;7.28;;
39256;SDS011;24958;48.066;11.038;2022-07-23T11:04:51;8.10;;;7.40;;
39256;SDS011;24958;48.066;11.038;2022-07-23T11:07:17;7.70;;;7.03;;
39256;SDS011;24958;48.066;11.038;2022-07-23T11:09:44;7.63;;;6.93;;
39256;SDS011;24958;48.066;11.038;2022-07-23T11:17:32;7.80;;;7.20;;
39256;SDS011;24958;48.066;11.038;2022-07-23T11:22:37;7.47;;;6.88;;
39256;SDS011;24958;48.066;11.038;2022-07-23T11:25:03;7.68;;;7.00;;
39256;SDS011;24958;48.066;11.038;2022-07-23T11:27:39;8.93;;;8.13;;
39256;SDS011;24958;48.066;11.038;2022-07-23T11:30:09;7.68;;;6.97;;
39256;SDS011;24958;48.066;11.038;2022-07-23T11:32:39;7.68;;;7.07;;
39256;SDS011;24958;48.066;11.038;2022-07-23T11:35:23;8.05;;;7.28;;
39256;SDS011;24958;48.066;11.038;2022-07-23T11:37:50;8.20;;;7.50;;
39256;SDS011;24958;48.066;11.038;2022-07-23T11:40:19;8.40;;;7.70;;
39256;SDS011;24958;48.066;11.038;2022-07-23T11:42:56;8.65;;;7.85;;
39256;SDS011;24958;48.066;11.038;2022-07-23T11:45:23;8.25;;;7.57;;
39256;SDS011;24958;48.066;11.038;2022-07-23T11:47:50;10.40;;;9.50;;
39256;SDS011;24958;48.066;11.038;2022-07-23T11:50:18;9.45;;;8.65;;
39256;SDS011;24958;48.066;11.038;2022-07-23T11:52:45;9.60;;;8.80;;
39256;SDS011;24958;48.066;11.038;2022-07-23T11:55:11;8.80;;;7.97;;
39256;SDS011;24958;48.066;11.038;2022-07-23T11:57:41;9.05;;;8.25;;
39256;SDS011;24958;48.066;11.038;2022-07-23T12:02:39;8.48;;;7.72;;
39256;SDS011;24958;48.066;11.038;2022-07-23T12:05:06;11.00;;;10.00;;
39256;SDS011;24958;48.066;11.038;2022-07-23T12:07:36;10.85;;;9.95;;
39256;SDS011;24958;48.066;11.038;2022-07-23T12:10:04;8.85;;;8.15;;
39256;SDS011;24958;48.066;11.038;2022-07-23T12:12:50;9.75;;;8.95;;
39256;SDS011;24958;48.066;11.038;2022-07-23T12:15:18;8.27;;;7.53;;
39256;SDS011;24958;48.066;11.038;2022-07-23T12:17:46;8.43;;;7.63;;
39256;SDS011;24958;48.066;11.038;2022-07-23T12:20:14;8.07;;;7.47;;
39256;SDS011;24958;48.066;11.038;2022-07-23T12:22:42;8.20;;;7.50;;
39256;SDS011;24958;48.066;11.038;2022-07-23T12:25:10;7.63;;;7.05;;
39256;SDS011;24958;48.066;11.038;2022-07-23T12:27:38;8.20;;;7.50;;
39256;SDS011;24958;48.066;11.038;2022-07-23T12:30:15;7.90;;;7.22;;
39256;SDS011;24958;48.066;11.038;2022-07-23T12:32:43;7.82;;;7.15;;
39256;SDS011;24958;48.066;11.038;2022-07-23T12:35:09;8.38;;;7.57;;
39256;SDS011;24958;48.066;11.038;2022-07-23T12:37:39;8.57;;;7.70;;
39256;SDS011;24958;48.066;11.038;2022-07-23T12:40:18;8.25;;;7.55;;
39256;SDS011;24958;48.066;11.038;2022-07-23T12:42:49;8.50;;;7.70;;
39256;SDS011;24958;48.066;11.038;2022-07-23T12:45:16;7.30;;;6.65;;
39256;SDS011;24958;48.066;11.038;2022-07-23T12:48:01;8.43;;;7.63;;
39256;SDS011;24958;48.066;11.038;2022-07-23T12:50:31;16.90;;;15.20;;
39256;SDS011;24958;48.066;11.038;2022-07-23T12:54:07;8.32;;;7.63;;
39256;SDS011;24958;48.066;11.038;2022-07-23T12:56:00;10.55;;;9.60;;
39256;SDS011;24958;48.066;11.038;2022-07-23T12:58:32;12.55;;;11.45;;
39256;SDS011;24958;48.066;11.038;2022-07-23T13:01:04;8.27;;;7.57;;
39256;SDS011;24958;48.066;11.038;2022-07-23T13:05:57;7.72;;;7.13;;
39256;SDS011;24958;48.066;11.038;2022-07-23T13:08:24;8.40;;;7.70;;
39256;SDS011;24958;48.066;11.038;2022-07-23T13:10:50;8.73;;;8.02;;
39256;SDS011;24958;48.066;11.038;2022-07-23T13:13:20;7.22;;;6.72;;
39256;SDS011;24958;48.066;11.038;2022-07-23T13:15:46;8.10;;;7.40;;
39256;SDS011;24958;48.066;11.038;2022-07-23T13:18:15;7.75;;;7.15;;
39256;SDS011;24958;48.066;11.038;2022-07-23T13:20:42;8.57;;;7.82;;
39256;SDS011;24958;48.066;11.038;2022-07-23T13:23:11;8.13;;;7.35;;
39256;SDS011;24958;48.066;11.038;2022-07-23T13:25:37;6.85;;;6.35;;
39256;SDS011;24958;48.066;11.038;2022-07-23T13:28:03;7.47;;;6.88;;
39256;SDS011;24958;48.066;11.038;2022-07-23T13:30:29;7.70;;;7.03;;
39256;SDS011;24958;48.066;11.038;2022-07-23T13:32:56;7.68;;;7.07;;
39256;SDS011;24958;48.066;11.038;2022-07-23T13:35:24;8.07;;;7.47;;
39256;SDS011;24958;48.066;11.038;2022-07-23T13:37:51;7.70;;;7.10;;
39256;SDS011;24958;48.066;11.038;2022-07-23T13:40:20;12.32;;;11.20;;
39256;SDS011;24958;48.066;11.038;2022-07-23T13:42:49;9.70;;;8.70;;
39256;SDS011;24958;48.066;11.038;2022-07-23T13:45:18;10.40;;;9.50;;
39256;SDS011;24958;48.066;11.038;2022-07-23T13:47:44;9.73;;;8.85;;
39256;SDS011;24958;48.066;11.038;2022-07-23T13:50:10;9.70;;;8.90;;
39256;SDS011;24958;48.066;11.038;2022-07-23T13:52:37;9.90;;;9.10;;
39256;SDS011;24958;48.066;11.038;2022-07-23T13:55:03;9.25;;;8.52;;
39256;SDS011;24958;48.066;11.038;2022-07-23T13:57:30;8.88;;;8.18;;
39256;SDS011;24958;48.066;11.038;2022-07-23T13:59:57;8.35;;;7.70;;
39256;SDS011;24958;48.066;11.038;2022-07-23T14:02:23;9.10;;;8.40;;
39256;SDS011;24958;48.066;11.038;2022-07-23T14:04:49;8.93;;;8.18;;
39256;SDS011;24958;48.066;11.038;2022-07-23T14:07:15;8.73;;;7.93;;
39256;SDS011;24958;48.066;11.038;2022-07-23T14:09:41;8.40;;;7.75;;
39256;SDS011;24958;48.066;11.038;2022-07-23T14:12:10;9.27;;;8.57;;
39256;SDS011;24958;48.066;11.038;2022-07-23T14:14:36;9.52;;;8.73;;
39256;SDS011;24958;48.066;11.038;2022-07-23T14:17:05;9.38;;;8.57;;
39256;SDS011;24958;48.066;11.038;2022-07-23T14:19:37;9.40;;;8.70;;
39256;SDS011;24958;48.066;11.038;2022-07-23T14:22:04;8.05;;;7.43;;
39256;SDS011;24958;48.066;11.038;2022-07-23T14:24:30;8.55;;;7.85;;
39256;SDS011;24958;48.066;11.038;2022-07-23T14:27:02;8.20;;;7.60;;
39256;SDS011;24958;48.066;11.038;2022-07-23T14:29:31;7.95;;;7.25;;
39256;SDS011;24958;48.066;11.038;2022-07-23T14:31:58;7.80;;;7.10;;
39256;SDS011;24958;48.066;11.038;2022-07-23T14:34:24;8.40;;;7.70;;
39256;SDS011;24958;48.066;11.038;2022-07-23T14:36:51;9.25;;;8.45;;
39256;SDS011;24958;48.066;11.038;2022-07-23T14:39:17;8.68;;;7.90;;
39256;SDS011;24958;48.066;11.038;2022-07-23T14:41:43;8.40;;;7.70;;
39256;SDS011;24958;48.066;11.038;2022-07-23T14:44:09;8.50;;;7.80;;
39256;SDS011;24958;48.066;11.038;2022-07-23T14:46:36;8.35;;;7.75;;